sensor_id;sensor_type;location;lat;lon;timestamp;temperature;humidity
13976;DHT22;7062;49.792;9.946;2024-01-15T00:01:45;-0.50;99.90
13976;DHT22;7062;49.792;9.946;2024-01-15T00:04:11;-0.40;99.90
13976;DHT22;7062;49.792;9.946;2024-01-15T00:06:36;-0.40;99.90
13976;DHT22;7062;49.792;9.946;2024-01-15T00:09:02;-0.40;99.90
13976;DHT22;7062;49.792;9.946;2024-01-15T00:11:28;-0.40;99.90
13976;DHT22;7062;49.792;9.946;2024-01-15T00:13:53;-0.30;99.90
13976;DHT22;7062;49.792;9.946;2024-01-15T00:16:19;-0.20;99.90
13976;DHT22;7062;49.792;9.946;2024-01-15T00:18:45;-0.20;99.90
13976;DHT22;7062;49.792;9.946;2024-01-15T00:21:10;-0.20;99.90
13976;DHT22;7062;49.792;9.946;2024-01-15T00:23:36;-0.20;99.90
13976;DHT22;7062;49.792;9.946;2024-01-15T00:26:02;0.00;99.90
13976;DHT22;7062;49.792;9.946;2024-01-15T00:28:27;0.20;99.90
13976;DHT22;7062;49.792;9.946;2024-01-15T00:30:53;0.20;99.90
13976;DHT22;7062;49.792;9.946;2024-01-15T00:33:19;0.20;99.90
13976;DHT22;7062;49.792;9.946;2024-01-15T00:35:44;0.10;99.90
13976;DHT22;7062;49.792;9.946;2024-01-15T00:38:10;-0.10;99.90
13976;DHT22;7062;49.792;9.946;2024-01-15T00:40:36;0.00;99.90
13976;DHT22;7062;49.792;9.946;2024-01-15T00:43:01;0.10;99.90
13976;DHT22;7062;49.792;9.946;2024-01-15T00:45:28;0.10;99.90
13976;DHT22;7062;49.792;9.946;2024-01-15T00:47:53;0.00;99.90
13976;DHT22;7062;49.792;9.946;2024-01-15T00:50:21;-0.20;99.90
13976;DHT22;7062;49.792;9.946;2024-01-15T00:52:47;-0.20;99.90
13976;DHT22;7062;49.792;9.946;2024-01-15T00:55:13;-0.30;99.90
13976;DHT22;7062;49.792;9.946;2024-01-15T00:57:40;-0.30;99.90
13976;DHT22;7062;49.792;9.946;2024-01-15T01:00:06;-0.30;99.90
13976;DHT22;7062;49.792;9.946;2024-01-15T01:02:32;-0.20;99.90
13976;DHT22;7062;49.792;9.946;2024-01-15T01:04:57;-0.20;99.90
13976;DHT22;7062;49.792;9.946;2024-01-15T01:07:23;-0.10;99.90
13976;DHT22;7062;49.792;9.946;2024-01-15T01:09:49;-0.20;99.90
13976;DHT22;7062;49.792;9.946;2024-01-15T01:12:16;-0.20;99.90
13976;DHT22;7062;49.792;9.946;2024-01-15T01:14:42;-0.30;99.90
13976;DHT22;7062;49.792;9.946;2024-01-15T01:17:07;-0.30;99.90
13976;DHT22;7062;49.792;9.946;2024-01-15T01:19:33;-0.40;99.90
13976;DHT22;7062;49.792;9.946;2024-01-15T01:21:58;-0.40;99.90
13976;DHT22;7062;49.792;9.946;2024-01-15T01:24:24;-0.50;99.90
13976;DHT22;7062;49.792;9.946;2024-01-15T01:26:50;-0.50;99.90
13976;DHT22;7062;49.792;9.946;2024-01-15T01:29:15;-0.50;99.90
13976;DHT22;7062;49.792;9.946;2024-01-15T01:31:44;-0.60;99.90
13976;DHT22;7062;49.792;9.946;2024-01-15T01:34:10;-0.60;99.90
13976;DHT22;7062;49.792;9.946;2024-01-15T01:36:36;-0.60;99.90
13976;DHT22;7062;49.792;9.946;2024-01-15T01:39:02;-0.60;99.90
13976;DHT22;7062;49.792;9.946;2024-01-15T01:41:27;-0.50;99.90
13976;DHT22;7062;49.792;9.946;2024-01-15T01:43:53;-0.50;99.90
13976;DHT22;7062;49.792;9.946;2024-01-15T01:46:19;-0.40;99.90
13976;DHT22;7062;49.792;9.946;2024-01-15T01:48:44;-0.40;99.90
13976;DHT22;7062;49.792;9.946;2024-01-15T01:51:11;-0.30;99.90
13976;DHT22;7062;49.792;9.946;2024-01-15T01:53:37;-0.40;99.90
13976;DHT22;7062;49.792;9.946;2024-01-15T01:56:04;-0.40;99.90
13976;DHT22;7062;49.792;9.946;2024-01-15T01:58:31;-0.40;99.90
13976;DHT22;7062;49.792;9.946;2024-01-15T02:00:58;-0.40;99.90
13976;DHT22;7062;49.792;9.946;2024-01-15T02:03:25;-0.20;99.90
13976;DHT22;7062;49.792;9.946;2024-01-15T02:05:51;-0.20;99.90
13976;DHT22;7062;49.792;9.946;2024-01-15T02:08:18;0.00;99.90
13976;DHT22;7062;49.792;9.946;2024-01-15T02:10:44;0.10;99.90
13976;DHT22;7062;49.792;9.946;2024-01-15T02:13:09;0.20;99.90
13976;DHT22;7062;49.792;9.946;2024-01-15T02:15:35;0.30;99.90
13976;DHT22;7062;49.792;9.946;2024-01-15T02:18:03;0.50;99.90
13976;DHT22;7062;49.792;9.946;2024-01-15T02:20:29;0.60;99.90
13976;DHT22;7062;49.792;9.946;2024-01-15T02:23:12;0.70;99.90
13976;DHT22;7062;49.792;9.946;2024-01-15T02:25:42;0.70;99.90
13976;DHT22;7062;49.792;9.946;2024-01-15T02:28:11;0.70;99.90
13976;DHT22;7062;49.792;9.946;2024-01-15T02:30:41;0.70;99.90
13976;DHT22;7062;49.792;9.946;2024-01-15T02:33:08;0.90;99.90
13976;DHT22;7062;49.792;9.946;2024-01-15T02:35:34;1.00;99.90
13976;DHT22;7062;49.792;9.946;2024-01-15T02:38:04;1.10;99.90
13976;DHT22;7062;49.792;9.946;2024-01-15T02:40:30;1.10;99.90
13976;DHT22;7062;49.792;9.946;2024-01-15T02:42:56;1.20;99.90
13976;DHT22;7062;49.792;9.946;2024-01-15T02:45:23;1.20;99.90
13976;DHT22;7062;49.792;9.946;2024-01-15T02:47:49;1.10;99.90
13976;DHT22;7062;49.792;9.946;2024-01-15T02:50:15;1.10;99.90
13976;DHT22;7062;49.792;9.946;2024-01-15T02:52:42;1.00;99.90
13976;DHT22;7062;49.792;9.946;2024-01-15T02:55:08;1.10;99.90
13976;DHT22;7062;49.792;9.946;2024-01-15T02:57:34;1.10;99.90
13976;DHT22;7062;49.792;9.946;2024-01-15T03:00:00;0.90;99.90
13976;DHT22;7062;49.792;9.946;2024-01-15T03:02:25;0.90;99.90
13976;DHT22;7062;49.792;9.946;2024-01-15T03:04:51;0.60;99.90
13976;DHT22;7062;49.792;9.946;2024-01-15T03:07:17;0.60;99.90
13976;DHT22;7062;49.792;9.946;2024-01-15T03:09:43;0.60;99.90
13976;DHT22;7062;49.792;9.946;2024-01-15T03:12:09;0.70;99.90
13976;DHT22;7062;49.792;9.946;2024-01-15T03:14:35;0.90;99.90
13976;DHT22;7062;49.792;9.946;2024-01-15T03:17:01;0.80;99.90
13976;DHT22;7062;49.792;9.946;2024-01-15T03:19:27;0.80;99.90
13976;DHT22;7062;49.792;9.946;2024-01-15T03:21:53;1.00;99.90
13976;DHT22;7062;49.792;9.946;2024-01-15T03:24:19;1.00;99.90
13976;DHT22;7062;49.792;9.946;2024-01-15T03:26:44;0.80;99.90
13976;DHT22;7062;49.792;9.946;2024-01-15T03:29:10;0.80;99.90
13976;DHT22;7062;49.792;9.946;2024-01-15T03:31:36;0.80;99.90
13976;DHT22;7062;49.792;9.946;2024-01-15T03:34:01;0.80;99.90
13976;DHT22;7062;49.792;9.946;2024-01-15T03:36:27;1.00;99.90
13976;DHT22;7062;49.792;9.946;2024-01-15T03:38:52;1.10;99.90
13976;DHT22;7062;49.792;9.946;2024-01-15T03:41:18;1.20;99.90
13976;DHT22;7062;49.792;9.946;2024-01-15T03:43:44;1.40;99.90
13976;DHT22;7062;49.792;9.946;2024-01-15T03:46:09;1.40;99.90
13976;DHT22;7062;49.792;9.946;2024-01-15T03:48:35;1.30;99.90
13976;DHT22;7062;49.792;9.946;2024-01-15T03:51:00;1.20;99.90
13976;DHT22;7062;49.792;9.946;2024-01-15T03:53:26;1.10;99.90
13976;DHT22;7062;49.792;9.946;2024-01-15T03:55:52;1.10;99.90
13976;DHT22;7062;49.792;9.946;2024-01-15T03:58:20;1.20;99.90
13976;DHT22;7062;49.792;9.946;2024-01-15T04:00:45;1.40;99.90
13976;DHT22;7062;49.792;9.946;2024-01-15T04:03:11;1.50;99.90
13976;DHT22;7062;49.792;9.946;2024-01-15T04:05:38;1.50;99.90
13976;DHT22;7062;49.792;9.946;2024-01-15T04:08:04;1.60;99.90
13976;DHT22;7062;49.792;9.946;2024-01-15T04:10:30;1.70;99.90
13976;DHT22;7062;49.792;9.946;2024-01-15T04:12:55;1.80;99.90
13976;DHT22;7062;49.792;9.946;2024-01-15T04:15:21;1.90;99.90
13976;DHT22;7062;49.792;9.946;2024-01-15T04:17:47;1.80;99.90
13976;DHT22;7062;49.792;9.946;2024-01-15T04:20:12;1.70;99.90
13976;DHT22;7062;49.792;9.946;2024-01-15T04:22:38;1.50;99.90
13976;DHT22;7062;49.792;9.946;2024-01-15T04:25:04;1.40;99.90
13976;DHT22;7062;49.792;9.946;2024-01-15T04:27:30;1.30;99.90
13976;DHT22;7062;49.792;9.946;2024-01-15T04:29:56;1.30;99.90
13976;DHT22;7062;49.792;9.946;2024-01-15T04:32:21;1.30;99.90
13976;DHT22;7062;49.792;9.946;2024-01-15T04:34:47;1.30;99.90
13976;DHT22;7062;49.792;9.946;2024-01-15T04:37:13;1.20;99.90
13976;DHT22;7062;49.792;9.946;2024-01-15T04:39:39;1.10;99.90
13976;DHT22;7062;49.792;9.946;2024-01-15T04:42:05;1.10;99.90
13976;DHT22;7062;49.792;9.946;2024-01-15T04:44:31;0.90;99.90
13976;DHT22;7062;49.792;9.946;2024-01-15T04:46:56;0.90;99.90
13976;DHT22;7062;49.792;9.946;2024-01-15T04:49:22;0.90;99.90
13976;DHT22;7062;49.792;9.946;2024-01-15T04:51:48;1.00;99.90
13976;DHT22;7062;49.792;9.946;2024-01-15T04:54:13;0.90;99.90
13976;DHT22;7062;49.792;9.946;2024-01-15T04:56:43;0.80;99.90
13976;DHT22;7062;49.792;9.946;2024-01-15T04:59:09;0.60;99.90
13976;DHT22;7062;49.792;9.946;2024-01-15T05:01:35;0.50;99.90
13976;DHT22;7062;49.792;9.946;2024-01-15T05:04:01;0.40;99.90
13976;DHT22;7062;49.792;9.946;2024-01-15T05:06:26;0.40;99.90
13976;DHT22;7062;49.792;9.946;2024-01-15T05:08:52;0.40;99.90
13976;DHT22;7062;49.792;9.946;2024-01-15T05:11:18;0.40;99.90
13976;DHT22;7062;49.792;9.946;2024-01-15T05:13:44;0.50;99.90
13976;DHT22;7062;49.792;9.946;2024-01-15T05:16:09;0.60;99.90
13976;DHT22;7062;49.792;9.946;2024-01-15T05:18:35;0.60;99.90
13976;DHT22;7062;49.792;9.946;2024-01-15T05:21:03;0.60;99.90
13976;DHT22;7062;49.792;9.946;2024-01-15T05:23:28;0.50;99.90
13976;DHT22;7062;49.792;9.946;2024-01-15T05:25:54;0.50;99.90
13976;DHT22;7062;49.792;9.946;2024-01-15T05:28:19;0.50;99.90
13976;DHT22;7062;49.792;9.946;2024-01-15T05:30:45;0.70;99.90
13976;DHT22;7062;49.792;9.946;2024-01-15T05:33:11;0.90;99.90
13976;DHT22;7062;49.792;9.946;2024-01-15T05:35:36;1.10;99.90
13976;DHT22;7062;49.792;9.946;2024-01-15T05:38:02;1.20;99.90
13976;DHT22;7062;49.792;9.946;2024-01-15T05:40:28;1.20;99.90
13976;DHT22;7062;49.792;9.946;2024-01-15T05:42:53;1.20;99.90
13976;DHT22;7062;49.792;9.946;2024-01-15T05:45:19;1.00;99.90
13976;DHT22;7062;49.792;9.946;2024-01-15T05:47:45;1.00;99.90
13976;DHT22;7062;49.792;9.946;2024-01-15T05:50:10;0.80;99.90
13976;DHT22;7062;49.792;9.946;2024-01-15T05:52:36;0.80;99.90
13976;DHT22;7062;49.792;9.946;2024-01-15T05:55:02;0.70;99.90
13976;DHT22;7062;49.792;9.946;2024-01-15T05:57:28;0.60;99.90
13976;DHT22;7062;49.792;9.946;2024-01-15T05:59:54;0.50;99.90
13976;DHT22;7062;49.792;9.946;2024-01-15T06:02:20;0.50;99.90
13976;DHT22;7062;49.792;9.946;2024-01-15T06:04:45;0.60;99.90
13976;DHT22;7062;49.792;9.946;2024-01-15T06:07:11;0.60;99.90
13976;DHT22;7062;49.792;9.946;2024-01-15T06:09:37;0.50;99.90
13976;DHT22;7062;49.792;9.946;2024-01-15T06:12:04;0.50;99.90
13976;DHT22;7062;49.792;9.946;2024-01-15T06:14:30;0.40;99.90
13976;DHT22;7062;49.792;9.946;2024-01-15T06:16:55;0.40;99.90
13976;DHT22;7062;49.792;9.946;2024-01-15T06:19:21;0.40;99.90
13976;DHT22;7062;49.792;9.946;2024-01-15T06:21:47;0.40;99.90
13976;DHT22;7062;49.792;9.946;2024-01-15T06:24:12;0.50;99.90
13976;DHT22;7062;49.792;9.946;2024-01-15T06:26:39;0.50;99.90
13976;DHT22;7062;49.792;9.946;2024-01-15T06:29:04;0.50;99.90
13976;DHT22;7062;49.792;9.946;2024-01-15T06:31:30;0.50;99.90
13976;DHT22;7062;49.792;9.946;2024-01-15T06:33:55;0.60;99.90
13976;DHT22;7062;49.792;9.946;2024-01-15T06:36:21;0.60;99.90
13976;DHT22;7062;49.792;9.946;2024-01-15T06:38:47;0.60;99.90
13976;DHT22;7062;49.792;9.946;2024-01-15T06:41:13;0.70;99.90
13976;DHT22;7062;49.792;9.946;2024-01-15T06:43:39;0.70;99.90
13976;DHT22;7062;49.792;9.946;2024-01-15T06:46:04;0.70;99.90
13976;DHT22;7062;49.792;9.946;2024-01-15T06:48:30;0.60;99.90
13976;DHT22;7062;49.792;9.946;2024-01-15T06:50:56;0.60;99.90
13976;DHT22;7062;49.792;9.946;2024-01-15T06:53:21;0.70;99.90
13976;DHT22;7062;49.792;9.946;2024-01-15T06:55:47;0.60;99.90
13976;DHT22;7062;49.792;9.946;2024-01-15T06:58:14;0.50;99.90
13976;DHT22;7062;49.792;9.946;2024-01-15T07:00:40;0.50;99.90
13976;DHT22;7062;49.792;9.946;2024-01-15T07:03:06;0.70;99.90
13976;DHT22;7062;49.792;9.946;2024-01-15T07:05:32;0.60;99.90
13976;DHT22;7062;49.792;9.946;2024-01-15T07:07:58;0.70;99.90
13976;DHT22;7062;49.792;9.946;2024-01-15T07:10:24;0.60;99.90
13976;DHT22;7062;49.792;9.946;2024-01-15T07:12:49;0.60;99.90
13976;DHT22;7062;49.792;9.946;2024-01-15T07:15:15;0.50;99.90
13976;DHT22;7062;49.792;9.946;2024-01-15T07:17:41;0.40;99.90
13976;DHT22;7062;49.792;9.946;2024-01-15T07:20:08;0.40;99.90
13976;DHT22;7062;49.792;9.946;2024-01-15T07:22:36;0.40;99.90
13976;DHT22;7062;49.792;9.946;2024-01-15T07:25:02;0.40;99.90
13976;DHT22;7062;49.792;9.946;2024-01-15T07:27:27;0.30;99.90
13976;DHT22;7062;49.792;9.946;2024-01-15T07:29:53;0.30;99.90
13976;DHT22;7062;49.792;9.946;2024-01-15T07:32:18;0.40;99.90
13976;DHT22;7062;49.792;9.946;2024-01-15T07:34:46;0.40;99.90
13976;DHT22;7062;49.792;9.946;2024-01-15T07:37:11;0.40;99.90
13976;DHT22;7062;49.792;9.946;2024-01-15T07:39:37;0.40;99.90
13976;DHT22;7062;49.792;9.946;2024-01-15T07:42:03;0.60;99.90
13976;DHT22;7062;49.792;9.946;2024-01-15T07:44:29;0.50;99.90
13976;DHT22;7062;49.792;9.946;2024-01-15T07:46:55;0.40;99.90
13976;DHT22;7062;49.792;9.946;2024-01-15T07:49:20;0.40;99.90
13976;DHT22;7062;49.792;9.946;2024-01-15T07:51:46;0.50;99.90
13976;DHT22;7062;49.792;9.946;2024-01-15T07:54:12;0.40;99.90
13976;DHT22;7062;49.792;9.946;2024-01-15T07:56:53;0.40;99.90
13976;DHT22;7062;49.792;9.946;2024-01-15T07:59:19;0.30;99.90
13976;DHT22;7062;49.792;9.946;2024-01-15T08:01:45;0.30;99.90
13976;DHT22;7062;49.792;9.946;2024-01-15T08:04:10;0.40;99.90
13976;DHT22;7062;49.792;9.946;2024-01-15T08:06:38;0.40;99.90
13976;DHT22;7062;49.792;9.946;2024-01-15T08:09:04;0.50;99.90
13976;DHT22;7062;49.792;9.946;2024-01-15T08:11:29;0.60;99.90
13976;DHT22;7062;49.792;9.946;2024-01-15T08:13:55;0.70;99.90
13976;DHT22;7062;49.792;9.946;2024-01-15T08:16:21;0.70;99.90
13976;DHT22;7062;49.792;9.946;2024-01-15T08:18:47;0.80;99.90
13976;DHT22;7062;49.792;9.946;2024-01-15T08:21:13;0.90;99.90
13976;DHT22;7062;49.792;9.946;2024-01-15T08:23:39;0.90;99.90
13976;DHT22;7062;49.792;9.946;2024-01-15T08:26:04;1.00;99.90
13976;DHT22;7062;49.792;9.946;2024-01-15T08:28:30;1.00;99.90
13976;DHT22;7062;49.792;9.946;2024-01-15T08:30:56;1.10;99.90
13976;DHT22;7062;49.792;9.946;2024-01-15T08:33:22;1.10;99.90
13976;DHT22;7062;49.792;9.946;2024-01-15T08:35:47;1.30;99.90
13976;DHT22;7062;49.792;9.946;2024-01-15T08:38:13;1.20;99.90
13976;DHT22;7062;49.792;9.946;2024-01-15T08:40:39;1.20;99.90
13976;DHT22;7062;49.792;9.946;2024-01-15T08:43:04;1.30;99.90
13976;DHT22;7062;49.792;9.946;2024-01-15T08:45:32;1.50;99.90
13976;DHT22;7062;49.792;9.946;2024-01-15T08:47:58;1.60;99.90
13976;DHT22;7062;49.792;9.946;2024-01-15T08:50:23;1.40;99.90
13976;DHT22;7062;49.792;9.946;2024-01-15T08:52:49;1.40;99.90
13976;DHT22;7062;49.792;9.946;2024-01-15T08:55:15;1.40;99.90
13976;DHT22;7062;49.792;9.946;2024-01-15T08:57:40;1.40;99.90
13976;DHT22;7062;49.792;9.946;2024-01-15T09:00:06;1.30;99.90
13976;DHT22;7062;49.792;9.946;2024-01-15T09:02:35;1.20;99.90
13976;DHT22;7062;49.792;9.946;2024-01-15T09:05:01;1.30;99.90
13976;DHT22;7062;49.792;9.946;2024-01-15T09:07:29;1.40;99.90
13976;DHT22;7062;49.792;9.946;2024-01-15T09:09:55;1.40;99.90
13976;DHT22;7062;49.792;9.946;2024-01-15T09:12:21;1.50;99.90
13976;DHT22;7062;49.792;9.946;2024-01-15T09:14:47;1.50;99.90
13976;DHT22;7062;49.792;9.946;2024-01-15T09:17:13;1.60;99.90
13976;DHT22;7062;49.792;9.946;2024-01-15T09:19:39;1.60;99.90
13976;DHT22;7062;49.792;9.946;2024-01-15T09:22:05;1.50;99.90
13976;DHT22;7062;49.792;9.946;2024-01-15T09:24:31;1.50;99.90
13976;DHT22;7062;49.792;9.946;2024-01-15T09:26:56;1.50;99.90
13976;DHT22;7062;49.792;9.946;2024-01-15T09:29:22;1.60;99.90
13976;DHT22;7062;49.792;9.946;2024-01-15T09:31:49;1.50;99.90
13976;DHT22;7062;49.792;9.946;2024-01-15T09:34:16;1.50;99.90
13976;DHT22;7062;49.792;9.946;2024-01-15T09:36:41;1.60;99.90
13976;DHT22;7062;49.792;9.946;2024-01-15T09:39:08;1.70;99.90
13976;DHT22;7062;49.792;9.946;2024-01-15T09:41:37;1.90;99.90
13976;DHT22;7062;49.792;9.946;2024-01-15T09:44:06;2.00;99.90
13976;DHT22;7062;49.792;9.946;2024-01-15T09:46:35;2.00;99.90
13976;DHT22;7062;49.792;9.946;2024-01-15T09:49:01;1.90;99.90
13976;DHT22;7062;49.792;9.946;2024-01-15T09:51:33;1.90;99.90
13976;DHT22;7062;49.792;9.946;2024-01-15T09:53:59;2.00;99.90
13976;DHT22;7062;49.792;9.946;2024-01-15T09:56:24;2.00;99.90
13976;DHT22;7062;49.792;9.946;2024-01-15T09:58:50;2.10;99.90
13976;DHT22;7062;49.792;9.946;2024-01-15T10:01:20;2.20;99.90
13976;DHT22;7062;49.792;9.946;2024-01-15T10:03:46;2.40;99.90
13976;DHT22;7062;49.792;9.946;2024-01-15T10:06:16;2.60;99.90
13976;DHT22;7062;49.792;9.946;2024-01-15T10:08:50;2.60;99.90
13976;DHT22;7062;49.792;9.946;2024-01-15T10:11:16;2.70;99.90
13976;DHT22;7062;49.792;9.946;2024-01-15T10:13:45;2.60;99.90
13976;DHT22;7062;49.792;9.946;2024-01-15T10:16:11;2.60;99.90
13976;DHT22;7062;49.792;9.946;2024-01-15T10:18:37;2.60;99.90
13976;DHT22;7062;49.792;9.946;2024-01-15T10:21:06;2.70;99.90
13976;DHT22;7062;49.792;9.946;2024-01-15T10:23:32;2.70;99.90
13976;DHT22;7062;49.792;9.946;2024-01-15T10:25:58;2.80;99.90
13976;DHT22;7062;49.792;9.946;2024-01-15T10:28:26;2.70;99.90
13976;DHT22;7062;49.792;9.946;2024-01-15T10:30:56;3.10;99.90
13976;DHT22;7062;49.792;9.946;2024-01-15T10:33:22;3.20;99.90
13976;DHT22;7062;49.792;9.946;2024-01-15T10:35:55;3.40;99.90
13976;DHT22;7062;49.792;9.946;2024-01-15T10:38:22;3.60;99.90
13976;DHT22;7062;49.792;9.946;2024-01-15T10:40:51;3.90;99.90
13976;DHT22;7062;49.792;9.946;2024-01-15T10:43:17;4.20;99.90
13976;DHT22;7062;49.792;9.946;2024-01-15T10:45:46;3.80;99.90
13976;DHT22;7062;49.792;9.946;2024-01-15T10:48:13;3.50;99.90
13976;DHT22;7062;49.792;9.946;2024-01-15T10:50:39;3.30;99.90
13976;DHT22;7062;49.792;9.946;2024-01-15T10:53:05;3.30;99.90
13976;DHT22;7062;49.792;9.946;2024-01-15T10:55:32;3.80;99.90
13976;DHT22;7062;49.792;9.946;2024-01-15T10:57:59;4.60;99.90
13976;DHT22;7062;49.792;9.946;2024-01-15T11:00:25;5.30;99.90
13976;DHT22;7062;49.792;9.946;2024-01-15T11:02:51;5.70;99.90
13976;DHT22;7062;49.792;9.946;2024-01-15T11:05:21;5.50;99.90
13976;DHT22;7062;49.792;9.946;2024-01-15T11:07:48;6.40;99.90
13976;DHT22;7062;49.792;9.946;2024-01-15T11:10:38;8.20;99.90
13976;DHT22;7062;49.792;9.946;2024-01-15T11:13:53;7.70;99.90
13976;DHT22;7062;49.792;9.946;2024-01-15T11:16:07;6.80;99.90
13976;DHT22;7062;49.792;9.946;2024-01-15T11:18:38;8.70;99.90
13976;DHT22;7062;49.792;9.946;2024-01-15T11:24:01;7.40;99.90
13976;DHT22;7062;49.792;9.946;2024-01-15T11:26:45;7.60;99.90
13976;DHT22;7062;49.792;9.946;2024-01-15T11:34:21;5.10;99.90
13976;DHT22;7062;49.792;9.946;2024-01-15T11:37:07;4.90;99.90
13976;DHT22;7062;49.792;9.946;2024-01-15T11:42:00;4.60;99.90
13976;DHT22;7062;49.792;9.946;2024-01-15T11:44:26;4.20;99.90
13976;DHT22;7062;49.792;9.946;2024-01-15T11:47:03;3.90;99.90
13976;DHT22;7062;49.792;9.946;2024-01-15T11:50:03;3.40;99.90
13976;DHT22;7062;49.792;9.946;2024-01-15T11:52:37;3.30;99.90
13976;DHT22;7062;49.792;9.946;2024-01-15T11:57:51;3.30;99.90
13976;DHT22;7062;49.792;9.946;2024-01-15T12:00:17;3.40;99.90
13976;DHT22;7062;49.792;9.946;2024-01-15T12:02:45;3.50;99.90
13976;DHT22;7062;49.792;9.946;2024-01-15T12:05:13;3.70;99.90
13976;DHT22;7062;49.792;9.946;2024-01-15T12:07:40;4.00;99.90
13976;DHT22;7062;49.792;9.946;2024-01-15T12:10:11;3.80;99.90
13976;DHT22;7062;49.792;9.946;2024-01-15T12:13:13;3.60;99.90
13976;DHT22;7062;49.792;9.946;2024-01-15T12:15:41;3.50;99.90
13976;DHT22;7062;49.792;9.946;2024-01-15T12:18:08;3.10;99.90
13976;DHT22;7062;49.792;9.946;2024-01-15T12:20:34;3.00;99.90
13976;DHT22;7062;49.792;9.946;2024-01-15T12:23:01;3.00;99.90
13976;DHT22;7062;49.792;9.946;2024-01-15T12:25:29;2.80;99.90
13976;DHT22;7062;49.792;9.946;2024-01-15T12:27:56;2.70;99.90
13976;DHT22;7062;49.792;9.946;2024-01-15T12:30:22;2.60;99.90
13976;DHT22;7062;49.792;9.946;2024-01-15T12:32:48;2.60;99.90
13976;DHT22;7062;49.792;9.946;2024-01-15T12:35:14;2.50;99.90
13976;DHT22;7062;49.792;9.946;2024-01-15T12:37:41;2.50;99.90
13976;DHT22;7062;49.792;9.946;2024-01-15T12:40:08;2.50;99.90
13976;DHT22;7062;49.792;9.946;2024-01-15T12:42:41;2.50;99.90
13976;DHT22;7062;49.792;9.946;2024-01-15T12:45:08;2.70;99.90
13976;DHT22;7062;49.792;9.946;2024-01-15T12:47:34;2.80;99.90
13976;DHT22;7062;49.792;9.946;2024-01-15T12:50:00;3.10;99.90
13976;DHT22;7062;49.792;9.946;2024-01-15T12:52:29;3.30;99.90
13976;DHT22;7062;49.792;9.946;2024-01-15T12:54:55;3.40;99.90
13976;DHT22;7062;49.792;9.946;2024-01-15T12:57:22;3.60;99.90
13976;DHT22;7062;49.792;9.946;2024-01-15T12:59:48;3.60;99.90
13976;DHT22;7062;49.792;9.946;2024-01-15T13:02:14;3.40;99.90
13976;DHT22;7062;49.792;9.946;2024-01-15T13:04:40;3.30;99.90
13976;DHT22;7062;49.792;9.946;2024-01-15T13:07:09;3.30;99.90
13976;DHT22;7062;49.792;9.946;2024-01-15T13:09:35;3.30;99.90
13976;DHT22;7062;49.792;9.946;2024-01-15T13:12:04;3.20;99.90
13976;DHT22;7062;49.792;9.946;2024-01-15T13:14:31;3.20;99.90
13976;DHT22;7062;49.792;9.946;2024-01-15T13:16:58;3.10;99.90
13976;DHT22;7062;49.792;9.946;2024-01-15T13:19:24;3.00;99.90
13976;DHT22;7062;49.792;9.946;2024-01-15T13:21:49;3.00;99.90
13976;DHT22;7062;49.792;9.946;2024-01-15T13:24:17;3.00;99.90
13976;DHT22;7062;49.792;9.946;2024-01-15T13:26:42;2.90;99.90
13976;DHT22;7062;49.792;9.946;2024-01-15T13:29:09;3.00;99.90
13976;DHT22;7062;49.792;9.946;2024-01-15T13:31:34;2.90;99.90
13976;DHT22;7062;49.792;9.946;2024-01-15T13:34:00;2.80;99.90
13976;DHT22;7062;49.792;9.946;2024-01-15T13:36:27;2.70;99.90
13976;DHT22;7062;49.792;9.946;2024-01-15T13:38:53;2.70;99.90
13976;DHT22;7062;49.792;9.946;2024-01-15T13:41:20;2.70;99.90
13976;DHT22;7062;49.792;9.946;2024-01-15T13:43:50;2.70;99.90
13976;DHT22;7062;49.792;9.946;2024-01-15T13:46:16;2.80;99.90
13976;DHT22;7062;49.792;9.946;2024-01-15T13:48:43;2.80;99.90
13976;DHT22;7062;49.792;9.946;2024-01-15T13:51:08;2.90;99.90
13976;DHT22;7062;49.792;9.946;2024-01-15T13:53:34;3.00;99.90
13976;DHT22;7062;49.792;9.946;2024-01-15T13:56:00;2.90;99.90
13976;DHT22;7062;49.792;9.946;2024-01-15T13:58:26;2.90;99.90
13976;DHT22;7062;49.792;9.946;2024-01-15T14:00:52;2.80;99.90
13976;DHT22;7062;49.792;9.946;2024-01-15T14:03:17;2.80;99.90
13976;DHT22;7062;49.792;9.946;2024-01-15T14:05:44;2.60;99.90
13976;DHT22;7062;49.792;9.946;2024-01-15T14:08:10;2.50;99.90
13976;DHT22;7062;49.792;9.946;2024-01-15T14:10:36;2.40;99.90
13976;DHT22;7062;49.792;9.946;2024-01-15T14:13:03;2.30;99.90
13976;DHT22;7062;49.792;9.946;2024-01-15T14:15:29;2.30;99.90
13976;DHT22;7062;49.792;9.946;2024-01-15T14:17:54;2.30;99.90
13976;DHT22;7062;49.792;9.946;2024-01-15T14:20:20;2.30;99.90
13976;DHT22;7062;49.792;9.946;2024-01-15T14:22:46;2.30;99.90
13976;DHT22;7062;49.792;9.946;2024-01-15T14:25:11;2.30;99.90
13976;DHT22;7062;49.792;9.946;2024-01-15T14:27:37;2.20;99.90
13976;DHT22;7062;49.792;9.946;2024-01-15T14:30:03;2.30;99.90
13976;DHT22;7062;49.792;9.946;2024-01-15T14:32:31;2.30;99.90
13976;DHT22;7062;49.792;9.946;2024-01-15T14:34:56;2.30;99.90
13976;DHT22;7062;49.792;9.946;2024-01-15T14:37:22;2.30;99.90
13976;DHT22;7062;49.792;9.946;2024-01-15T14:39:48;2.20;99.90
13976;DHT22;7062;49.792;9.946;2024-01-15T14:42:13;2.20;99.90
13976;DHT22;7062;49.792;9.946;2024-01-15T14:44:39;2.30;99.90
13976;DHT22;7062;49.792;9.946;2024-01-15T14:47:06;2.30;99.90
13976;DHT22;7062;49.792;9.946;2024-01-15T14:49:33;2.20;99.90
13976;DHT22;7062;49.792;9.946;2024-01-15T14:51:59;2.20;99.90
13976;DHT22;7062;49.792;9.946;2024-01-15T14:54:24;2.20;99.90
13976;DHT22;7062;49.792;9.946;2024-01-15T14:56:51;2.10;99.90
13976;DHT22;7062;49.792;9.946;2024-01-15T14:59:17;2.30;99.90
13976;DHT22;7062;49.792;9.946;2024-01-15T15:01:42;2.20;99.90
13976;DHT22;7062;49.792;9.946;2024-01-15T15:04:08;2.20;99.90
13976;DHT22;7062;49.792;9.946;2024-01-15T15:06:36;2.10;99.90
13976;DHT22;7062;49.792;9.946;2024-01-15T15:09:02;2.10;99.90
13976;DHT22;7062;49.792;9.946;2024-01-15T15:11:34;2.20;99.90
13976;DHT22;7062;49.792;9.946;2024-01-15T15:14:00;2.20;99.90
13976;DHT22;7062;49.792;9.946;2024-01-15T15:16:26;2.20;99.90
13976;DHT22;7062;49.792;9.946;2024-01-15T15:18:53;2.30;99.90
13976;DHT22;7062;49.792;9.946;2024-01-15T15:21:20;2.20;99.90
13976;DHT22;7062;49.792;9.946;2024-01-15T15:23:45;2.30;99.90
13976;DHT22;7062;49.792;9.946;2024-01-15T15:26:13;2.30;99.90
13976;DHT22;7062;49.792;9.946;2024-01-15T15:28:38;2.40;99.90
13976;DHT22;7062;49.792;9.946;2024-01-15T15:31:05;2.40;99.90
13976;DHT22;7062;49.792;9.946;2024-01-15T15:33:33;2.50;99.90
13976;DHT22;7062;49.792;9.946;2024-01-15T15:35:59;2.50;99.90
13976;DHT22;7062;49.792;9.946;2024-01-15T15:38:33;2.40;99.90
13976;DHT22;7062;49.792;9.946;2024-01-15T15:40:59;2.50;99.90
13976;DHT22;7062;49.792;9.946;2024-01-15T15:43:25;2.50;99.90
13976;DHT22;7062;49.792;9.946;2024-01-15T15:45:51;2.50;99.90
13976;DHT22;7062;49.792;9.946;2024-01-15T15:48:17;2.50;99.90
13976;DHT22;7062;49.792;9.946;2024-01-15T15:50:42;2.50;99.90
13976;DHT22;7062;49.792;9.946;2024-01-15T15:53:08;2.60;99.90
13976;DHT22;7062;49.792;9.946;2024-01-15T15:55:34;2.60;99.90
13976;DHT22;7062;49.792;9.946;2024-01-15T15:58:03;2.60;99.90
13976;DHT22;7062;49.792;9.946;2024-01-15T16:00:29;2.60;99.90
13976;DHT22;7062;49.792;9.946;2024-01-15T16:02:55;2.60;99.90
13976;DHT22;7062;49.792;9.946;2024-01-15T16:05:21;3.00;99.90
13976;DHT22;7062;49.792;9.946;2024-01-15T16:07:47;2.60;99.90
13976;DHT22;7062;49.792;9.946;2024-01-15T16:10:13;2.60;99.90